Time;durP1;ratioP1;P1;durP2;ratioP2;P2;SDS_P1;SDS_P2;PMS_P1;PMS_P2;Temp;Humidity;BMP_temperature;BMP_pressure;BME280_temperature;BME280_humidity;BME280_pressure;Samples;Min_cycle;Max_cycle;Signal;HPM_P1;HPM_P2
2022/10/13 00:01:17;;;;;;;0.70;0.70;;;;;;;4.93;90.79;99715.09;5057691;28;20112;-89
2022/10/13 00:03:46;;;;;;;0.70;0.70;;;;;;;4.94;90.55;99714.09;5058499;28;20395;-88
2022/10/13 00:06:21;;;;;;;0.60;0.60;;;;;;;4.93;90.46;99721.28;5076171;28;20491;-89
2022/10/13 00:08:49;;;;;;;0.70;0.70;;;;;;;4.91;90.43;99722.47;5077148;28;20048;-88
2022/10/13 00:11:22;;;;;;;0.70;0.70;;;;;;;4.89;90.31;99722.69;5069483;28;20044;-88
2022/10/13 00:13:50;;;;;;;0.60;0.60;;;;;;;4.86;90.29;99716.88;5086822;28;20048;-86
2022/10/13 00:16:19;;;;;;;0.63;0.63;;;;;;;4.86;90.31;99719.53;5089562;28;20071;-88
2022/10/13 00:18:46;;;;;;;0.70;0.70;;;;;;;4.85;90.20;99725.94;5068198;28;20143;-88
2022/10/13 00:21:21;;;;;;;0.70;0.70;;;;;;;4.80;90.36;99717.63;5069642;28;20489;-86
2022/10/13 00:23:50;;;;;;;0.60;0.60;;;;;;;4.78;90.37;99729.38;5080176;28;20084;-88
2022/10/13 00:26:23;;;;;;;0.70;0.70;;;;;;;4.76;90.75;99722.53;5079588;28;20041;-86
2022/10/13 00:28:50;;;;;;;0.60;0.60;;;;;;;4.75;90.77;99721.69;5084952;28;20048;-86
2022/10/13 00:31:20;;;;;;;0.60;0.60;;;;;;;4.77;90.88;99725.03;5066882;28;20439;-87
2022/10/13 00:33:48;;;;;;;0.60;0.60;;;;;;;4.80;90.62;99729.16;5077348;28;20059;-87
2022/10/13 00:36:18;;;;;;;0.60;0.60;;;;;;;4.84;90.42;99724.28;5054665;28;20049;-90
2022/10/13 00:38:45;;;;;;;0.70;0.70;;;;;;;4.82;90.38;99726.31;5053898;28;20048;-87
2022/10/13 00:41:13;;;;;;;0.70;0.70;;;;;;;4.81;90.31;99724.63;5072469;28;20498;-87
2022/10/13 00:43:52;;;;;;;0.63;0.63;;;;;;;4.80;90.16;99726.50;5053466;28;20098;-88
2022/10/13 00:46:20;;;;;;;0.70;0.70;;;;;;;4.67;90.39;99727.16;5071926;28;20052;-88
2022/10/13 00:48:54;;;;;;;0.70;0.70;;;;;;;4.55;90.66;99723.31;5071608;28;20055;-88
2022/10/13 00:51:25;;;;;;;0.70;0.70;;;;;;;4.43;91.33;99727.50;5056221;28;20425;-86
2022/10/13 00:53:55;;;;;;;0.70;0.70;;;;;;;4.33;91.90;99731.31;5054171;28;20055;-88
2022/10/13 00:56:23;;;;;;;0.60;0.60;;;;;;;4.25;92.32;99736.72;5053834;28;20495;-86
2022/10/13 00:58:50;;;;;;;0.60;0.60;;;;;;;4.18;92.85;99743.84;5058267;28;20052;-92
2022/10/13 01:01:18;;;;;;;0.60;0.60;;;;;;;4.13;93.20;99739.06;5076669;28;20051;-88
2022/10/13 01:03:45;;;;;;;0.65;0.65;;;;;;;4.08;93.72;99737.97;5053616;28;20449;-88
2022/10/13 01:06:13;;;;;;;0.70;0.70;;;;;;;4.07;94.13;99733.59;5071798;28;20483;-86
2022/10/13 01:08:40;;;;;;;0.70;0.70;;;;;;;4.05;94.04;99743.66;5053695;28;20048;-89
2022/10/13 01:11:19;;;;;;;0.70;0.70;;;;;;;4.04;94.54;99742.00;5071701;28;20411;-88
2022/10/13 01:13:58;;;;;;;0.60;0.60;;;;;;;4.02;94.79;99736.81;5071152;28;20052;-87
2022/10/13 01:16:43;;;;;;;0.70;0.70;;;;;;;4.00;94.90;99733.53;5053406;28;20048;-90
2022/10/13 01:19:34;;;;;;;0.70;0.70;;;;;;;4.03;95.10;99740.34;5054224;28;20408;-88
2022/10/13 01:22:12;;;;;;;0.70;0.70;;;;;;;4.04;95.18;99742.81;5071737;28;20048;-89
2022/10/13 01:24:46;;;;;;;0.80;0.80;;;;;;;4.06;94.89;99742.66;5054593;28;20060;-91
2022/10/13 01:27:18;;;;;;;0.60;0.60;;;;;;;4.04;95.13;99736.66;5072244;28;20125;-89
2022/10/13 01:29:57;;;;;;;0.70;0.70;;;;;;;4.04;95.17;99742.00;5054238;28;20044;-89
2022/10/13 01:32:30;;;;;;;0.70;0.70;;;;;;;4.01;95.39;99735.19;5071559;28;20060;-89
2022/10/13 01:35:09;;;;;;;0.60;0.60;;;;;;;4.04;95.53;99742.81;5071826;28;20082;-89
2022/10/13 01:37:48;;;;;;;0.70;0.70;;;;;;;4.05;95.31;99736.47;5072985;28;20390;-88
2022/10/13 01:40:22;;;;;;;0.70;0.70;;;;;;;4.05;95.37;99736.47;5073424;28;20189;-88
2022/10/13 01:42:52;;;;;;;0.80;0.80;;;;;;;4.04;95.28;99742.81;5055353;28;20060;-90
2022/10/13 01:45:22;;;;;;;0.80;0.80;;;;;;;4.04;95.23;99744.66;5057002;28;20048;-87
2022/10/13 01:47:50;;;;;;;0.70;0.70;;;;;;;4.00;95.25;99743.38;5054461;28;20045;-88
2022/10/13 01:50:18;;;;;;;0.73;0.73;;;;;;;3.98;95.16;99745.41;5058043;28;20060;-88
2022/10/13 01:52:46;;;;;;;0.75;0.75;;;;;;;4.00;95.44;99756.72;5065690;28;20083;-92
2022/10/13 01:55:13;;;;;;;0.70;0.70;;;;;;;3.96;95.24;99747.44;5065331;28;20131;-91
2022/10/13 01:57:43;;;;;;;0.70;0.70;;;;;;;3.90;95.39;99752.50;5060251;28;20144;-94
2022/10/13 02:00:13;;;;;;;0.70;0.70;;;;;;;3.85;95.57;99754.88;5058712;28;20061;-86
2022/10/13 02:02:55;;;;;;;0.80;0.80;;;;;;;3.83;95.60;99751.56;5044002;28;20429;-87
2022/10/13 02:05:29;;;;;;;0.70;0.70;;;;;;;3.78;95.93;99761.97;5037335;28;20049;-86
2022/10/13 02:08:11;;;;;;;0.70;0.70;;;;;;;3.74;95.91;99754.50;5039736;28;20483;-87
2022/10/13 02:11:00;;;;;;;0.80;0.80;;;;;;;3.67;96.22;99759.72;5045873;28;20084;-87
2022/10/13 02:13:29;;;;;;;0.70;0.70;;;;;;;3.59;96.27;99760.63;5050102;28;20079;-87
2022/10/13 02:15:59;;;;;;;0.70;0.70;;;;;;;3.55;96.46;99761.19;5034452;28;20054;-85
2022/10/13 02:18:31;;;;;;;0.77;0.77;;;;;;;3.48;97.04;99759.22;5032724;28;20126;-89
2022/10/13 02:20:59;;;;;;;0.80;0.80;;;;;;;3.50;97.48;99764.41;5025368;28;20411;-87
2022/10/13 02:23:28;;;;;;;0.80;0.80;;;;;;;3.50;97.60;99764.41;5052247;28;20526;-88
2022/10/13 02:25:56;;;;;;;0.73;0.73;;;;;;;3.44;97.63;99765.94;5048849;28;20088;-87
2022/10/13 02:28:23;;;;;;;0.70;0.70;;;;;;;3.42;97.90;99765.28;5054680;28;20075;-85
2022/10/13 02:30:50;;;;;;;0.70;0.70;;;;;;;3.39;98.14;99767.47;5065405;28;20045;-87
2022/10/13 02:33:17;;;;;;;0.77;0.77;;;;;;;3.38;98.51;99769.31;5036893;28;20159;-87
2022/10/13 02:35:45;;;;;;;0.80;0.80;;;;;;;3.36;98.39;99765.16;5030937;28;20064;-86
2022/10/13 02:38:11;;;;;;;0.80;0.80;;;;;;;3.35;98.72;99763.53;5033181;28;20123;-87
2022/10/13 02:40:39;;;;;;;0.70;0.70;;;;;;;3.37;98.64;99765.00;5042415;28;20053;-84
2022/10/13 02:43:06;;;;;;;0.70;0.70;;;;;;;3.36;98.70;99763.31;5063676;28;20095;-86
2022/10/13 02:45:33;;;;;;;0.80;0.80;;;;;;;3.35;98.94;99761.69;5049878;28;20059;-87
2022/10/13 02:48:00;;;;;;;0.70;0.70;;;;;;;3.34;98.89;99770.69;5044468;28;20046;-87
2022/10/13 02:50:28;;;;;;;0.80;0.80;;;;;;;3.28;98.95;99773.25;5032920;28;20072;-86
2022/10/13 02:52:55;;;;;;;0.80;0.80;;;;;;;3.20;99.22;99776.81;5067348;28;20087;-84
2022/10/13 02:55:22;;;;;;;0.70;0.70;;;;;;;3.19;99.32;99773.31;5064703;28;20422;-85
2022/10/13 02:57:55;;;;;;;0.70;0.70;;;;;;;3.23;99.75;99777.25;5070646;28;20052;-86
2022/10/13 03:00:22;;;;;;;0.80;0.80;;;;;;;3.20;99.55;99771.47;5071535;28;20143;-85
2022/10/13 03:02:49;;;;;;;0.80;0.80;;;;;;;3.18;99.76;99776.97;5051891;28;20045;-86
2022/10/13 03:05:16;;;;;;;0.70;0.70;;;;;;;3.17;99.84;99778.00;5052321;28;20053;-92
2022/10/13 03:07:43;;;;;;;0.80;0.80;;;;;;;3.11;99.88;99777.84;5067765;28;20139;-89
2022/10/13 03:10:10;;;;;;;0.70;0.70;;;;;;;3.10;100.00;99778.88;5071995;28;20057;-88
2022/10/13 03:12:37;;;;;;;0.80;0.80;;;;;;;3.07;100.00;99774.72;5072109;28;20050;-87
2022/10/13 03:15:04;;;;;;;0.70;0.70;;;;;;;3.11;100.00;99775.19;5072111;28;20074;-88
2022/10/13 03:17:31;;;;;;;0.80;0.80;;;;;;;3.13;100.00;99779.34;5053603;28;20053;-87
2022/10/13 03:19:58;;;;;;;0.80;0.80;;;;;;;3.13;100.00;99778.53;5056787;28;20107;-88
2022/10/13 03:22:25;;;;;;;0.75;0.75;;;;;;;3.06;100.00;99773.06;5069546;28;20454;-92
2022/10/13 03:24:52;;;;;;;0.70;0.70;;;;;;;3.02;100.00;99780.59;5073418;28;20071;-94
2022/10/13 03:27:19;;;;;;;0.70;0.70;;;;;;;3.00;100.00;99779.09;5084511;28;20106;-93
2022/10/13 03:29:46;;;;;;;0.80;0.80;;;;;;;3.02;100.00;99780.59;5077030;28;20051;-94
2022/10/13 03:32:13;;;;;;;0.80;0.80;;;;;;;3.05;100.00;99779.41;5072283;28;20049;-93
2022/10/13 03:34:40;;;;;;;0.70;0.70;;;;;;;3.14;100.00;99794.34;5075595;28;20064;-86
2022/10/13 03:37:07;;;;;;;0.80;0.80;;;;;;;3.18;100.00;99786.81;5053652;28;20048;-89
2022/10/13 03:39:40;;;;;;;0.70;0.70;;;;;;;3.25;100.00;99782.44;5056166;28;20139;-89
2022/10/13 03:42:09;;;;;;;0.80;0.80;;;;;;;3.30;100.00;99780.06;5073986;28;20052;-92
2022/10/13 03:44:38;;;;;;;0.75;0.75;;;;;;;3.34;100.00;99789.38;5057862;28;20063;-86
2022/10/13 03:47:05;;;;;;;0.80;0.80;;;;;;;3.35;99.59;99788.38;5071927;28;20052;-87
2022/10/13 03:49:32;;;;;;;0.80;0.80;;;;;;;3.36;99.66;99790.00;5074774;28;20122;-87
2022/10/13 03:51:59;;;;;;;0.80;0.80;;;;;;;3.43;99.35;99798.97;5073351;28;20072;-88
2022/10/13 03:54:26;;;;;;;0.80;0.80;;;;;;;3.46;99.12;99789.78;5070325;28;20090;-86
2022/10/13 03:56:53;;;;;;;0.85;0.85;;;;;;;3.48;98.78;99788.59;5071563;28;20079;-90
2022/10/13 03:59:20;;;;;;;0.80;0.80;;;;;;;3.51;98.61;99794.56;5070955;28;20044;-87
2022/10/13 04:01:47;;;;;;;0.80;0.80;;;;;;;3.52;98.73;99794.41;5052985;28;20048;-92
2022/10/13 04:04:14;;;;;;;0.80;0.80;;;;;;;3.52;98.60;99805.09;5062864;28;20102;-91
2022/10/13 04:06:55;;;;;;;0.75;0.75;;;;;;;3.55;98.51;99802.06;5054579;28;20395;-91
2022/10/13 04:09:23;;;;;;;0.80;0.80;;;;;;;3.59;98.43;99799.84;5071226;28;20045;-87
2022/10/13 04:11:51;;;;;;;0.80;0.80;;;;;;;3.63;98.31;99803.81;5053382;28;20063;-86
2022/10/13 04:14:19;;;;;;;0.70;0.70;;;;;;;3.66;98.00;99804.28;5071905;28;20451;-86
2022/10/13 04:16:46;;;;;;;0.70;0.70;;;;;;;3.71;97.84;99806.41;5072254;28;20060;-86
2022/10/13 04:19:14;;;;;;;0.70;0.70;;;;;;;3.77;97.41;99811.00;5066330;28;20553;-85
2022/10/13 04:21:46;;;;;;;0.70;0.70;;;;;;;3.81;97.01;99812.31;5057803;28;20195;-89
2022/10/13 04:24:16;;;;;;;0.70;0.70;;;;;;;3.81;96.65;99812.31;5060178;28;20053;-86
2022/10/13 04:26:45;;;;;;;0.70;0.70;;;;;;;3.81;96.32;99814.16;5044602;28;20080;-88
2022/10/13 04:29:12;;;;;;;0.70;0.70;;;;;;;3.85;96.36;99816.31;5026518;28;20055;-87
2022/10/13 04:31:41;;;;;;;0.75;0.75;;;;;;;3.86;95.79;99815.28;5055833;28;20168;-86
2022/10/13 04:34:09;;;;;;;0.73;0.73;;;;;;;3.89;95.53;99817.59;5058255;28;20105;-85
2022/10/13 04:36:36;;;;;;;0.70;0.70;;;;;;;3.90;95.08;99823.78;5061460;28;20048;-90
2022/10/13 04:39:04;;;;;;;0.60;0.60;;;;;;;3.89;94.70;99822.94;5072656;28;20057;-93
2022/10/13 04:41:32;;;;;;;0.70;0.70;;;;;;;3.91;94.66;99826.25;5067690;28;20416;-93
2022/10/13 04:44:01;;;;;;;0.75;0.75;;;;;;;3.90;94.38;99829.13;5066925;28;20067;-88
2022/10/13 04:46:30;;;;;;;0.70;0.70;;;;;;;3.89;94.26;99828.25;5056004;28;20056;-93
2022/10/13 04:49:00;;;;;;;0.70;0.70;;;;;;;3.90;94.42;99829.13;5069151;28;20056;-89
2022/10/13 04:51:31;;;;;;;0.80;0.80;;;;;;;3.95;94.36;99833.91;4711964;28;10000461;-91
2022/10/13 04:54:04;;;;;;;0.80;0.80;;;;;;;4.02;94.07;99829.50;5069041;28;20240;-92
2022/10/13 04:56:53;;;;;;;0.70;0.70;;;;;;;4.09;93.63;99838.44;5015507;28;20078;-87
2022/10/13 04:59:20;;;;;;;0.70;0.70;;;;;;;4.15;93.44;99839.53;5025060;28;20220;-90
2022/10/13 05:01:49;;;;;;;0.77;0.77;;;;;;;4.17;93.09;99841.03;5023489;28;20054;-89
2022/10/13 05:04:17;;;;;;;0.70;0.70;;;;;;;4.12;92.71;99825.53;5010143;28;20068;-88
2022/10/13 05:06:44;;;;;;;0.60;0.60;;;;;;;4.11;92.66;99847.09;5027465;28;20067;-88
2022/10/13 05:09:31;;;;;;;0.75;0.75;;;;;;;4.16;92.46;99850.06;5024401;28;20132;-88
2022/10/13 05:11:59;;;;;;;0.75;0.75;;;;;;;4.16;92.22;99849.25;5001051;28;20060;-87
2022/10/13 05:14:29;;;;;;;0.70;0.70;;;;;;;4.15;92.21;99852.91;5012457;28;20081;-88
2022/10/13 05:16:58;;;;;;;0.70;0.70;;;;;;;4.21;92.15;99863.72;5014875;28;20084;-88
2022/10/13 05:19:28;;;;;;;0.75;0.75;;;;;;;4.33;92.25;99858.75;5027106;28;20057;-89
2022/10/13 05:21:56;;;;;;;0.80;0.80;;;;;;;4.40;91.86;99853.50;5023454;28;20058;-88
2022/10/13 05:24:35;;;;;;;0.70;0.70;;;;;;;4.47;91.42;99863.25;5018453;28;20630;-89
2022/10/13 05:27:08;;;;;;;0.80;0.80;;;;;;;4.58;91.27;99859.28;5005845;28;20053;-87
2022/10/13 05:29:35;;;;;;;0.70;0.70;;;;;;;4.66;90.87;99864.56;5059523;28;20098;-87
2022/10/13 05:32:02;;;;;;;0.70;0.70;;;;;;;4.76;90.84;99848.22;5072641;28;20222;-89
2022/10/13 05:34:31;;;;;;;0.70;0.70;;;;;;;4.87;90.34;99858.44;5072249;28;20059;-88
2022/10/13 05:36:59;;;;;;;0.70;0.70;;;;;;;4.95;90.32;99865.53;5053067;28;20056;-87
2022/10/13 05:39:26;;;;;;;0.70;0.70;;;;;;;5.03;89.96;99856.59;5067358;28;20045;-88
2022/10/13 05:41:55;;;;;;;0.70;0.70;;;;;;;5.08;89.31;99862.19;5059694;28;20542;-85
2022/10/13 05:44:23;;;;;;;0.70;0.70;;;;;;;4.96;88.81;99859.16;5066318;28;20052;-84
2022/10/13 05:46:55;;;;;;;0.70;0.70;;;;;;;4.94;88.85;99866.56;5075730;28;20040;-89
2022/10/13 05:49:22;;;;;;;0.70;0.70;;;;;;;4.94;88.52;99862.03;5074932;28;20045;-87
2022/10/13 05:51:54;;;;;;;0.63;0.63;;;;;;;4.99;88.61;99865.00;5074728;28;20052;-88
2022/10/13 05:54:30;;;;;;;0.70;0.70;;;;;;;4.98;88.31;99860.63;5074436;28;20101;-88
2022/10/13 05:57:06;;;;;;;0.70;0.70;;;;;;;5.01;88.04;99870.13;5074356;28;20102;-88
2022/10/13 05:59:37;;;;;;;0.60;0.60;;;;;;;5.01;87.66;99867.47;5074588;28;20059;-90
2022/10/13 06:02:06;;;;;;;0.70;0.70;;;;;;;4.99;87.62;99865.00;5056770;28;20068;-87
2022/10/13 06:04:40;;;;;;;0.70;0.70;;;;;;;4.94;87.75;99864.72;5056339;28;20083;-88
2022/10/13 06:07:08;;;;;;;0.70;0.70;;;;;;;4.98;87.49;99868.66;5073580;28;20090;-86
2022/10/13 06:09:37;;;;;;;0.70;0.70;;;;;;;4.96;87.84;99875.22;5056134;28;20075;-88
2022/10/13 06:12:05;;;;;;;0.70;0.70;;;;;;;5.05;87.67;99868.75;5056518;28;20055;-88
2022/10/13 06:14:32;;;;;;;0.70;0.70;;;;;;;5.17;87.43;99869.94;5073912;28;20080;-88
2022/10/13 06:17:03;;;;;;;0.70;0.70;;;;;;;5.24;87.55;99863.81;5074013;28;20040;-88
2022/10/13 06:19:30;;;;;;;0.70;0.70;;;;;;;5.38;86.91;99860.28;5074104;28;20071;-90
2022/10/13 06:22:05;;;;;;;0.70;0.70;;;;;;;5.45;85.90;99861.19;5074380;28;20055;-87
2022/10/13 06:24:32;;;;;;;0.70;0.70;;;;;;;5.41;85.40;99875.94;5056580;28;20057;-89
2022/10/13 06:26:59;;;;;;;0.80;0.80;;;;;;;5.39;85.32;99883.34;5076501;28;20087;-89
2022/10/13 06:29:26;;;;;;;0.70;0.70;;;;;;;5.49;85.20;99870.47;5057179;28;20075;-89
2022/10/13 06:31:53;;;;;;;0.70;0.70;;;;;;;5.52;84.65;99877.28;5074305;28;20083;-88
2022/10/13 06:34:20;;;;;;;0.70;0.70;;;;;;;5.47;84.62;99879.72;5073785;28;20051;-91
2022/10/13 06:36:47;;;;;;;0.70;0.70;;;;;;;5.56;84.62;99873.22;5075481;28;20098;-88
2022/10/13 06:39:16;;;;;;;0.70;0.70;;;;;;;5.60;84.23;99875.34;5041765;28;20057;-90
2022/10/13 06:41:45;;;;;;;0.70;0.70;;;;;;;5.66;84.03;99873.72;5077385;28;20043;-90
2022/10/13 06:44:13;;;;;;;0.60;0.60;;;;;;;5.71;84.29;99882.03;5078506;28;20454;-89
2022/10/13 06:46:41;;;;;;;0.70;0.70;;;;;;;5.76;84.53;99893.00;5042632;28;20048;-88
2022/10/13 06:49:09;;;;;;;0.70;0.70;;;;;;;5.73;83.84;99887.19;5073574;28;20036;-88
2022/10/13 06:51:37;;;;;;;0.70;0.70;;;;;;;5.63;83.64;99884.84;5075609;28;20104;-89
2022/10/13 06:54:04;;;;;;;0.70;0.70;;;;;;;5.67;83.81;99887.94;5075604;28;20048;-90
2022/10/13 06:56:32;;;;;;;0.70;0.70;;;;;;;5.55;84.13;99887.66;5066889;28;20051;-89
2022/10/13 06:59:04;;;;;;;0.70;0.70;;;;;;;5.55;84.53;99898.34;5081847;28;20443;-88
2022/10/13 07:01:33;;;;;;;0.70;0.70;;;;;;;5.71;84.40;99892.72;5076015;28;20052;-89
2022/10/13 07:04:09;;;;;;;0.70;0.70;;;;;;;5.81;84.35;99892.41;5078318;28;20048;-88
2022/10/13 07:06:36;;;;;;;0.70;0.70;;;;;;;5.78;83.75;99887.44;5075978;28;20056;-86
2022/10/13 07:09:04;;;;;;;0.70;0.70;;;;;;;5.81;83.51;99895.94;5075019;28;20135;-87
2022/10/13 07:11:32;;;;;;;0.70;0.70;;;;;;;5.76;83.86;99894.84;5057178;28;20462;-89
2022/10/13 07:13:59;;;;;;;0.70;0.70;;;;;;;5.81;83.79;99897.78;5075147;28;20188;-87
2022/10/13 07:16:27;;;;;;;0.70;0.70;;;;;;;5.84;83.29;99897.38;5076296;28;20044;-89
2022/10/13 07:18:54;;;;;;;0.70;0.70;;;;;;;5.85;82.75;99893.72;5074337;28;20055;-89
2022/10/13 07:21:21;;;;;;;0.63;0.63;;;;;;;5.78;82.79;99899.00;5055191;28;20037;-89
2022/10/13 07:23:48;;;;;;;0.70;0.70;;;;;;;5.77;82.97;99894.66;5075111;28;20135;-89
2022/10/13 07:26:15;;;;;;;0.70;0.70;;;;;;;5.86;83.02;99900.72;5075381;28;20057;-91
2022/10/13 07:28:43;;;;;;;0.70;0.70;;;;;;;5.80;83.18;99906.84;5076163;28;20046;-89
2022/10/13 07:31:18;;;;;;;0.70;0.70;;;;;;;5.85;83.50;99902.56;5078680;28;20049;-88
2022/10/13 07:33:48;;;;;;;0.80;0.80;;;;;;;5.94;83.01;99905.97;5043039;28;20075;-89
2022/10/13 07:36:17;;;;;;;0.80;0.80;;;;;;;6.16;82.02;99911.31;5063411;28;20186;-90
2022/10/13 07:38:44;;;;;;;0.70;0.70;;;;;;;6.35;81.39;99905.25;5075370;28;20063;-88
2022/10/13 07:41:12;;;;;;;0.70;0.70;;;;;;;6.48;80.97;99905.38;5072361;28;20414;-88
2022/10/13 07:43:39;;;;;;;0.75;0.75;;;;;;;6.60;80.35;99910.19;5072567;28;20045;-88
2022/10/13 07:46:06;;;;;;;0.70;0.70;;;;;;;6.78;79.67;99907.81;5071424;28;20048;-89
2022/10/13 07:48:34;;;;;;;0.80;0.80;;;;;;;6.73;78.97;99912.94;5072606;28;20059;-89
2022/10/13 07:51:06;;;;;;;0.80;0.80;;;;;;;6.80;78.86;99907.63;5072995;28;20102;-89
2022/10/13 07:53:34;;;;;;;0.70;0.70;;;;;;;6.93;78.60;99919.25;5072253;28;20143;-87
2022/10/13 07:56:02;;;;;;;0.80;0.80;;;;;;;7.00;78.28;99905.06;5053948;28;20179;-89
2022/10/13 07:58:30;;;;;;;0.80;0.80;;;;;;;7.03;77.75;99910.00;5071826;28;20106;-89
2022/10/13 08:00:58;;;;;;;0.80;0.80;;;;;;;7.06;77.58;99901.56;5071954;28;20226;-88
2022/10/13 08:03:27;;;;;;;0.80;0.80;;;;;;;7.04;77.73;99906.28;5072534;28;20048;-87
2022/10/13 08:05:58;;;;;;;0.80;0.80;;;;;;;7.06;77.69;99898.88;5072605;28;20056;-88
2022/10/13 08:08:25;;;;;;;0.70;0.70;;;;;;;7.04;77.87;99904.47;5073014;28;20049;-87
2022/10/13 08:10:53;;;;;;;0.70;0.70;;;;;;;7.07;77.87;99904.06;5055088;28;20048;-87
2022/10/13 08:13:26;;;;;;;0.80;0.80;;;;;;;7.09;77.78;99907.38;5072631;28;20097;-88
2022/10/13 08:15:53;;;;;;;0.70;0.70;;;;;;;7.14;77.45;99915.66;5073109;28;20048;-90
2022/10/13 08:18:22;;;;;;;0.70;0.70;;;;;;;7.01;77.69;99925.47;5072326;28;20052;-88
2022/10/13 08:20:48;;;;;;;0.70;0.70;;;;;;;7.08;77.87;99924.50;5054041;28;20044;-89
2022/10/13 08:23:17;;;;;;;0.70;0.70;;;;;;;7.16;77.38;99918.97;5071961;28;20118;-88
2022/10/13 08:25:49;;;;;;;0.80;0.80;;;;;;;7.44;76.67;99909.97;5070879;28;20041;-87
2022/10/13 08:28:22;;;;;;;0.70;0.70;;;;;;;7.95;74.93;99912.16;5054069;28;20144;-89
2022/10/13 08:30:50;;;;;;;0.70;0.70;;;;;;;8.18;73.85;99921.69;5057209;28;20503;-89
2022/10/13 08:33:18;;;;;;;0.90;0.90;;;;;;;8.34;73.45;99921.25;5058333;28;20055;-89
2022/10/13 08:35:45;;;;;;;0.80;0.80;;;;;;;8.70;72.16;99913.81;5074761;28;20084;-90
2022/10/13 08:38:12;;;;;;;0.70;0.70;;;;;;;8.80;71.33;99916.88;5074631;28;20053;-88
2022/10/13 08:40:39;;;;;;;0.70;0.70;;;;;;;8.72;71.23;99911.75;5073586;28;20048;-88
2022/10/13 08:43:07;;;;;;;0.60;0.60;;;;;;;8.32;71.80;99922.50;5071885;28;20051;-87
2022/10/13 08:45:35;;;;;;;0.70;0.70;;;;;;;7.98;73.01;99927.03;5072192;28;20052;-89
2022/10/13 08:48:31;;;;;;;0.70;0.70;;;;;;;7.80;73.53;99928.47;5055556;28;20062;-89
2022/10/13 08:51:02;;;;;;;0.60;0.60;;;;;;;7.62;74.21;99924.69;5000422;28;20048;-86
2022/10/13 08:53:33;;;;;;;0.60;0.60;;;;;;;7.38;74.93;99919.66;5070951;28;20052;-88
2022/10/13 08:56:23;;;;;;;0.60;0.60;;;;;;;7.25;75.33;99935.72;5073014;28;20051;-90
2022/10/13 08:58:53;;;;;;;0.70;0.70;;;;;;;7.26;75.84;99933.88;5075789;28;20047;-89
2022/10/13 09:01:29;;;;;;;0.70;0.70;;;;;;;7.39;75.26;99936.59;5059776;28;20052;-88
2022/10/13 09:04:35;;;;;;;0.70;0.70;;;;;;;7.53;74.66;99941.00;5083804;28;20063;-90
2022/10/13 09:07:15;;;;;;;0.73;0.73;;;;;;;7.69;74.17;99938.97;5049125;28;21585;-85
2022/10/13 09:09:49;;;;;;;0.70;0.70;;;;;;;7.68;73.60;99934.63;5070196;28;20052;-86
2022/10/13 09:12:23;;;;;;;0.73;0.73;;;;;;;7.49;73.98;99933.53;5062405;28;20048;-87
2022/10/13 09:15:02;;;;;;;0.70;0.70;;;;;;;7.57;73.91;99933.34;5023836;28;20050;-88
2022/10/13 09:17:29;;;;;;;0.70;0.70;;;;;;;7.65;73.63;99922.44;5028374;28;20057;-88
2022/10/13 09:20:07;;;;;;;0.70;0.70;;;;;;;7.65;73.37;99925.13;5032248;28;20554;-85
2022/10/13 09:22:35;;;;;;;0.70;0.70;;;;;;;7.40;73.50;99935.59;5013612;28;20502;-89
2022/10/13 09:25:05;;;;;;;0.70;0.70;;;;;;;7.26;74.85;99945.44;5030304;28;20439;-88
2022/10/13 09:27:49;;;;;;;0.70;0.70;;;;;;;7.21;74.42;99939.81;5030421;28;20575;-88
2022/10/13 09:30:45;;;;;;;0.80;0.80;;;;;;;7.13;75.05;99929.25;5031682;28;20049;-90
2022/10/13 09:33:22;;;;;;;0.70;0.70;;;;;;;7.16;75.01;99934.22;5027277;28;20573;-87
2022/10/13 09:36:07;;;;;;;0.77;0.77;;;;;;;7.23;74.49;99928.91;5027047;28;20111;-87
2022/10/13 09:38:34;;;;;;;0.70;0.70;;;;;;;7.00;75.01;99938.09;5040714;28;20099;-86
2022/10/13 09:41:02;;;;;;;0.70;0.70;;;;;;;6.86;75.56;99934.50;5030473;28;20050;-87
2022/10/13 09:43:35;;;;;;;0.70;0.70;;;;;;;6.78;76.17;99931.97;5027981;28;20049;-86
2022/10/13 09:46:11;;;;;;;0.70;0.70;;;;;;;6.86;76.45;99931.81;5058924;28;20048;-88
2022/10/13 09:48:41;;;;;;;0.70;0.70;;;;;;;7.04;75.96;99930.44;5045771;28;20044;-85
2022/10/13 09:51:33;;;;;;;0.80;0.80;;;;;;;7.20;75.33;99923.94;5052241;28;20048;-86
2022/10/13 09:54:34;;;;;;;0.80;0.80;;;;;;;7.42;75.04;99919.25;5062943;28;20972;-86
2022/10/13 09:57:18;;;;;;;0.70;0.70;;;;;;;8.13;72.34;99922.31;5061166;28;20044;-88
2022/10/13 09:59:48;;;;;;;0.80;0.80;;;;;;;7.84;72.38;99914.59;5063313;28;20057;-86
2022/10/13 10:02:15;;;;;;;0.70;0.70;;;;;;;7.94;72.51;99917.72;5066697;28;20815;-88
2022/10/13 10:04:48;;;;;;;0.70;0.70;;;;;;;8.04;72.53;99921.66;5075742;28;20041;-88
2022/10/13 10:07:20;;;;;;;0.70;0.70;;;;;;;8.13;71.60;99908.84;5089469;28;20062;-87
2022/10/13 10:10:00;;;;;;;0.70;0.70;;;;;;;8.33;70.78;99921.47;5073509;28;20090;-87
2022/10/13 10:12:30;;;;;;;0.70;0.70;;;;;;;8.23;70.66;99922.72;5069367;28;20106;-90
2022/10/13 10:14:57;;;;;;;0.70;0.70;;;;;;;8.34;70.70;99910.50;5045034;28;20067;-89
2022/10/13 10:17:29;;;;;;;0.70;0.70;;;;;;;8.56;70.16;99921.91;5054984;28;20587;-88
2022/10/13 10:20:12;;;;;;;0.70;0.70;;;;;;;8.72;69.96;99904.47;5054202;28;20046;-88
2022/10/13 10:23:04;;;;;;;0.70;0.70;;;;;;;8.71;69.15;99920.81;5054733;28;20087;-88
2022/10/13 10:25:33;;;;;;;0.68;0.68;;;;;;;8.47;68.79;99920.47;5050231;28;20049;-85
2022/10/13 10:28:16;;;;;;;0.70;0.70;;;;;;;8.42;69.55;99912.19;5034029;28;20044;-87
2022/10/13 10:30:52;;;;;;;0.70;0.70;;;;;;;9.23;66.66;99914.47;5069243;28;20147;-91
2022/10/13 10:33:43;;;;;;;0.70;0.70;;;;;;;9.25;66.22;99917.78;5042736;28;20735;-90
2022/10/13 10:36:17;;;;;;;0.90;0.90;;;;;;;10.17;62.78;99909.34;5046378;28;20053;-89
2022/10/13 10:39:08;;;;;;;0.70;0.70;;;;;;;10.60;61.76;99913.97;5053055;28;20067;-88
2022/10/13 10:42:19;;;;;;;0.90;0.90;;;;;;;10.24;61.39;99917.41;5036719;28;20065;-86
2022/10/13 10:44:50;;;;;;;0.60;0.60;;;;;;;9.19;64.09;99913.25;5019871;28;20041;-89
2022/10/13 10:47:26;;;;;;;0.60;0.60;;;;;;;8.47;66.75;99915.06;5012563;28;21011;-89
2022/10/13 10:50:01;;;;;;;1.10;1.10;;;;;;;10.01;64.18;99915.28;5040794;28;20431;-90
2022/10/13 10:52:48;;;;;;;0.70;0.70;;;;;;;9.93;62.41;99911.81;5057652;28;20053;-89
2022/10/13 10:55:22;;;;;;;0.60;0.60;;;;;;;10.41;61.35;99916.66;5083262;28;20144;-91
2022/10/13 10:57:52;;;;;;;1.10;1.10;;;;;;;12.02;56.93;99919.09;5080031;28;20048;-91
2022/10/13 11:00:21;;;;;;;1.10;1.10;;;;;;;13.01;53.61;99905.72;5081994;28;20051;-90
2022/10/13 11:03:14;;;;;;;1.00;1.00;;;;;;;14.02;51.29;99910.66;5073597;28;20049;-91
2022/10/13 11:05:56;;;;;;;1.00;1.00;;;;;;;14.37;49.37;99904.19;5086806;28;21463;-90
2022/10/13 11:08:37;;;;;;;1.00;1.00;;;;;;;14.55;48.93;99905.84;5040749;28;20045;-89
2022/10/13 11:11:19;;;;;;;0.90;0.90;;;;;;;14.52;48.37;99907.13;5059069;28;20052;-90
2022/10/13 11:13:52;;;;;;;1.00;1.00;;;;;;;14.57;48.11;99908.31;5073008;28;20116;-90
2022/10/13 11:16:33;;;;;;;0.90;0.90;;;;;;;14.68;47.84;99910.91;5066635;28;20052;-88
2022/10/13 11:19:05;;;;;;;1.00;1.00;;;;;;;15.26;47.05;99905.16;5068624;28;20052;-90
2022/10/13 11:21:53;;;;;;;0.93;0.93;;;;;;;15.41;45.87;99907.25;5052984;28;20040;-90
2022/10/13 11:24:32;;;;;;;1.00;1.00;;;;;;;15.97;45.51;99907.88;5055425;28;20098;-89
2022/10/13 11:27:15;;;;;;;0.90;0.90;;;;;;;16.36;43.71;99900.31;5084010;28;20639;-90
2022/10/13 11:29:45;;;;;;;0.90;0.90;;;;;;;15.56;44.81;99908.25;5072671;28;20059;-90
2022/10/13 11:32:54;;;;;;;1.00;1.00;;;;;;;15.94;43.84;99909.22;5041737;28;20087;-89
2022/10/13 11:35:30;;;;;;;1.00;1.00;;;;;;;16.12;44.14;99908.00;5041196;28;20048;-88
2022/10/13 11:38:11;;;;;;;0.90;0.90;;;;;;;16.44;41.84;99891.66;5035337;28;20118;-89
2022/10/13 11:40:59;;;;;;;0.85;0.85;;;;;;;16.07;42.28;99907.97;5057939;28;20049;-90
2022/10/13 11:43:56;;;;;;;0.88;0.88;;;;;;;15.95;41.73;99901.84;5053104;28;20067;-90
2022/10/13 11:46:29;;;;;;;0.70;0.70;;;;;;;14.93;43.93;99901.50;5067646;28;20068;-90
2022/10/13 11:48:56;;;;;;;0.50;0.50;;;;;;;13.29;46.66;99904.13;5041374;28;20071;-90
2022/10/13 11:51:42;;;;;;;1.00;1.00;;;;;;;12.77;48.91;99904.09;5062826;28;20091;-90
2022/10/13 11:54:18;;;;;;;0.60;0.60;;;;;;;13.98;46.56;99895.94;5039312;28;20053;-89
2022/10/13 11:56:52;;;;;;;1.00;1.00;;;;;;;13.72;47.48;99901.97;5061690;28;20814;-89
2022/10/13 11:59:33;;;;;;;0.70;0.70;;;;;;;13.82;47.21;99907.59;5053512;28;20048;-91
2022/10/13 12:02:09;;;;;;;0.52;0.52;;;;;;;13.47;47.56;99899.59;5067033;28;20048;-87
2022/10/13 12:04:38;;;;;;;1.00;1.00;;;;;;;15.28;43.95;99897.59;5066724;28;20048;-89